createdAt,value
2022-11-05T00:01:04.239Z,9.70
2022-11-05T00:03:26.901Z,5.13
2022-11-05T00:05:47.263Z,7.20
2022-11-05T00:08:19.023Z,9.07
2022-11-05T00:10:24.415Z,7.50
2022-11-05T00:12:44.524Z,6.55
2022-11-05T00:15:05.033Z,6.90
2022-11-05T00:17:07.647Z,10.00
2022-11-05T00:19:11.608Z,8.05
2022-11-05T00:21:28.225Z,5.38
2022-11-05T00:23:48.339Z,6.40
2022-11-05T00:25:58.844Z,5.72
2022-11-05T00:28:03.072Z,8.25
2022-11-05T00:30:06.992Z,7.47
2022-11-05T00:32:09.623Z,5.13
2022-11-05T00:34:13.567Z,5.20
2022-11-05T00:36:16.342Z,5.53
2022-11-05T00:38:19.029Z,5.90
2022-11-05T00:40:21.628Z,5.07
2022-11-05T00:42:42.177Z,5.05
2022-11-05T00:45:02.484Z,5.72
2022-11-05T00:47:19.147Z,5.93
2022-11-05T00:49:31.959Z,5.13
2022-11-05T00:51:34.605Z,8.82
2022-11-05T00:53:37.243Z,6.28
2022-11-05T00:55:41.171Z,4.55
2022-11-05T00:57:42.867Z,4.40
2022-11-05T00:59:45.454Z,4.22
2022-11-05T01:01:48.117Z,7.20
2022-11-05T01:03:52.024Z,5.10
2022-11-05T01:05:59.233Z,4.78
2022-11-05T01:08:02.537Z,5.22
2022-11-05T01:10:05.917Z,4.93
2022-11-05T01:12:08.586Z,4.05
2022-11-05T01:14:13.962Z,5.00
2022-11-05T01:16:16.534Z,5.25
2022-11-05T01:18:20.119Z,3.90
2022-11-05T01:20:22.811Z,4.53
2022-11-05T01:22:26.789Z,8.45
2022-11-05T01:24:29.529Z,4.75
2022-11-05T01:26:32.514Z,4.78
2022-11-05T01:28:35.287Z,4.25
2022-11-05T01:30:38.923Z,4.75
2022-11-05T01:32:41.568Z,3.97
2022-11-05T01:34:44.199Z,3.65
2022-11-05T01:36:46.966Z,3.75
2022-11-05T01:38:50.920Z,4.25
2022-11-05T01:40:53.588Z,3.65
2022-11-05T01:42:56.209Z,4.22
2022-11-05T01:45:02.296Z,3.83
2022-11-05T01:47:05.026Z,4.00
2022-11-05T01:49:14.971Z,4.00
2022-11-05T01:51:22.165Z,3.97
2022-11-05T01:53:31.440Z,3.90
2022-11-05T01:55:40.273Z,4.03
2022-11-05T01:57:42.916Z,5.38
2022-11-05T01:59:49.467Z,5.53
2022-11-05T02:01:52.979Z,4.68
2022-11-05T02:04:00.627Z,3.67
2022-11-05T02:06:04.778Z,3.72
2022-11-05T02:08:11.014Z,4.00
2022-11-05T02:10:15.485Z,4.53
2022-11-05T02:12:20.480Z,4.45
2022-11-05T02:14:23.072Z,4.05
2022-11-05T02:16:37.672Z,3.80
2022-11-05T02:18:52.119Z,4.30
2022-11-05T02:21:06.574Z,5.15
2022-11-05T02:23:51.475Z,4.55
2022-11-05T02:26:36.200Z,4.68
2022-11-05T02:29:01.269Z,5.18
2022-11-05T02:31:08.415Z,3.45
2022-11-05T02:33:23.238Z,6.80
2022-11-05T02:35:44.194Z,4.03
2022-11-05T02:37:52.540Z,3.97
2022-11-05T02:40:06.089Z,4.15
2022-11-05T02:42:16.532Z,4.03
2022-11-05T02:44:27.872Z,4.13
2022-11-05T02:46:42.561Z,5.57
2022-11-05T02:48:51.474Z,3.88
2022-11-05T02:51:00.016Z,3.50
2022-11-05T02:53:05.161Z,3.90
2022-11-05T02:55:17.554Z,4.43
2022-11-05T02:57:20.506Z,4.45
2022-11-05T02:59:23.190Z,3.55
2022-11-05T03:01:25.984Z,3.22
2022-11-05T03:03:34.393Z,3.63
2022-11-05T03:05:45.252Z,4.30
2022-11-05T03:07:55.955Z,3.92
2022-11-05T03:10:10.064Z,4.03
2022-11-05T03:12:23.818Z,3.90
2022-11-05T03:14:38.574Z,4.00
2022-11-05T03:16:43.277Z,3.83
2022-11-05T03:18:51.396Z,4.53
2022-11-05T03:21:01.968Z,5.53
2022-11-05T03:23:11.555Z,3.92
2022-11-05T03:25:19.054Z,6.10
2022-11-05T03:27:27.598Z,6.32
2022-11-05T03:29:35.593Z,5.75
2022-11-05T03:31:41.921Z,5.60
2022-11-05T03:33:45.925Z,8.07
2022-11-05T03:35:54.967Z,4.82
2022-11-05T03:38:01.990Z,6.30
2022-11-05T03:40:08.571Z,4.70
2022-11-05T03:42:16.687Z,4.25
2022-11-05T03:44:24.775Z,4.35
2022-11-05T03:46:31.301Z,6.05
2022-11-05T03:48:38.853Z,4.40
2022-11-05T03:50:47.465Z,5.13
2022-11-05T03:52:54.441Z,4.88
2022-11-05T03:54:57.367Z,3.92
2022-11-05T03:57:04.267Z,5.15
2022-11-05T03:59:09.376Z,5.75
2022-11-05T04:01:13.288Z,3.97
2022-11-05T04:03:15.954Z,4.15
2022-11-05T04:05:18.694Z,5.30
2022-11-05T04:07:39.161Z,5.45
2022-11-05T04:10:00.602Z,3.92
2022-11-05T04:12:21.627Z,4.43
2022-11-05T04:14:26.093Z,4.97
2022-11-05T04:16:46.212Z,4.18
2022-11-05T04:18:48.954Z,6.15
2022-11-05T04:21:09.316Z,5.72
2022-11-05T04:23:29.622Z,5.20
2022-11-05T04:25:33.738Z,5.63
2022-11-05T04:27:36.976Z,5.35
2022-11-05T04:29:56.926Z,5.85
2022-11-05T04:31:59.566Z,5.72
2022-11-05T04:34:02.329Z,4.53
2022-11-05T04:36:05.403Z,6.38
2022-11-05T04:38:09.773Z,5.43
2022-11-05T04:40:12.349Z,5.30
2022-11-05T04:42:16.300Z,4.55
2022-11-05T04:44:18.909Z,7.30
2022-11-05T04:46:21.547Z,5.90
2022-11-05T04:48:24.154Z,5.78
2022-11-05T04:50:27.266Z,4.93
2022-11-05T04:52:29.914Z,5.55
2022-11-05T04:54:32.538Z,5.75
2022-11-05T04:56:35.310Z,5.32
2022-11-05T04:58:41.930Z,5.68
2022-11-05T05:00:44.655Z,5.50
2022-11-05T05:02:47.599Z,5.90
2022-11-05T05:04:50.211Z,4.45
2022-11-05T05:06:52.870Z,4.10
2022-11-05T05:08:55.478Z,5.18
2022-11-05T05:11:02.277Z,6.03
2022-11-05T05:13:04.962Z,3.92
2022-11-05T05:15:09.559Z,5.07
2022-11-05T05:17:12.150Z,3.92
2022-11-05T05:19:15.387Z,5.68
2022-11-05T05:21:37.102Z,4.28
2022-11-05T05:23:39.722Z,5.00
2022-11-05T05:25:42.294Z,4.18
2022-11-05T05:27:44.887Z,4.15
2022-11-05T05:29:47.484Z,6.28
2022-11-05T05:31:51.448Z,7.95
2022-11-05T05:33:54.751Z,6.60
2022-11-05T05:35:58.670Z,5.72
2022-11-05T05:38:01.280Z,6.65
2022-11-05T05:40:04.167Z,5.57
2022-11-05T05:42:06.839Z,7.00
2022-11-05T05:44:09.494Z,7.00
2022-11-05T05:46:13.675Z,6.95
2022-11-05T05:48:17.645Z,7.63
2022-11-05T05:50:21.179Z,7.88
2022-11-05T05:52:23.952Z,6.93
2022-11-05T05:54:32.089Z,7.97
2022-11-05T05:56:36.114Z,9.10
2022-11-05T05:58:40.152Z,8.32
2022-11-05T06:00:42.787Z,8.55
2022-11-05T06:02:45.526Z,8.88
2022-11-05T06:04:49.544Z,9.18
2022-11-05T06:06:52.147Z,10.00
2022-11-05T06:08:55.558Z,10.65
2022-11-05T06:10:59.314Z,14.13
2022-11-05T06:13:02.594Z,11.30
2022-11-05T06:15:05.986Z,11.30
2022-11-05T06:17:09.010Z,12.60
2022-11-05T06:19:11.700Z,15.75
2022-11-05T06:21:18.859Z,10.43
2022-11-05T06:23:21.468Z,12.95
2022-11-05T06:25:24.418Z,10.77
2022-11-05T06:27:27.088Z,13.35
2022-11-05T06:29:29.710Z,12.15
2022-11-05T06:31:32.332Z,10.80
2022-11-05T06:33:35.136Z,12.27
2022-11-05T06:35:37.766Z,16.77
2022-11-05T06:37:41.763Z,16.90
2022-11-05T06:39:44.708Z,16.70
2022-11-05T06:42:17.964Z,16.30
2022-11-05T06:44:09.935Z,19.75
2022-11-05T06:46:12.776Z,20.13
2022-11-05T06:48:15.375Z,23.00
2022-11-05T06:50:17.946Z,21.52
2022-11-05T06:52:21.418Z,22.70
2022-11-05T06:54:25.368Z,22.75
2022-11-05T06:56:28.033Z,25.55
2022-11-05T06:58:30.846Z,25.23
2022-11-05T07:00:33.743Z,21.20
2022-11-05T07:02:36.388Z,20.30
2022-11-05T07:04:39.096Z,22.25
2022-11-05T07:06:41.719Z,20.80
2022-11-05T07:08:44.310Z,22.67
2022-11-05T07:10:49.104Z,22.15
2022-11-05T07:12:51.714Z,23.10
2022-11-05T07:14:54.334Z,23.05
2022-11-05T07:16:57.743Z,23.17
2022-11-05T07:19:00.388Z,19.05
2022-11-05T07:21:04.533Z,23.95
2022-11-05T07:23:11.300Z,22.13
2022-11-05T07:25:14.156Z,21.23
2022-11-05T07:27:18.577Z,21.52
2022-11-05T07:29:21.236Z,22.77
2022-11-05T07:31:23.826Z,23.27
2022-11-05T07:33:26.445Z,25.05
2022-11-05T07:35:29.317Z,21.92
2022-11-05T07:37:32.007Z,27.13
2022-11-05T07:39:34.626Z,24.15
2022-11-05T07:41:37.288Z,21.63
2022-11-05T07:43:41.254Z,24.45
2022-11-05T07:45:44.009Z,22.38
2022-11-05T07:47:48.668Z,24.83
2022-11-05T07:49:51.307Z,23.60
2022-11-05T07:51:53.976Z,27.35
2022-11-05T07:53:56.537Z,23.92
2022-11-05T07:55:59.154Z,25.25
2022-11-05T07:58:01.834Z,23.35
2022-11-05T08:00:06.872Z,25.52
2022-11-05T08:02:11.145Z,29.60
2022-11-05T08:04:13.938Z,25.50
2022-11-05T08:06:16.606Z,24.73
2022-11-05T08:08:20.723Z,26.23
2022-11-05T08:10:24.090Z,22.80
2022-11-05T08:12:26.837Z,22.23
2022-11-05T08:14:29.463Z,23.25
2022-11-05T08:16:33.560Z,18.90
2022-11-05T08:18:36.235Z,21.60
2022-11-05T08:20:39.630Z,22.98
2022-11-05T08:22:44.568Z,22.50
2022-11-05T08:24:47.204Z,23.55
2022-11-05T08:26:49.857Z,21.98
2022-11-05T08:28:52.491Z,19.88
2022-11-05T08:30:57.287Z,22.35
2022-11-05T08:33:02.983Z,20.92
2022-11-05T08:35:06.597Z,25.15
2022-11-05T08:37:09.324Z,18.52
2022-11-05T08:39:16.815Z,12.65
2022-11-05T08:41:19.771Z,11.25
2022-11-05T08:43:22.588Z,10.75
2022-11-05T08:45:25.775Z,12.63
2022-11-05T08:47:28.387Z,12.15
2022-11-05T08:49:32.422Z,11.85
2022-11-05T08:51:35.068Z,9.00
2022-11-05T08:53:37.714Z,9.65
2022-11-05T08:55:40.486Z,11.05
2022-11-05T08:57:43.095Z,6.65
2022-11-05T08:59:45.753Z,6.15
2022-11-05T09:01:50.488Z,7.35
2022-11-05T09:03:53.449Z,6.28
2022-11-05T09:05:57.408Z,6.55
2022-11-05T09:08:01.574Z,7.18
2022-11-05T09:10:04.694Z,6.18
2022-11-05T09:12:12.602Z,5.60
2022-11-05T09:14:15.634Z,6.15
2022-11-05T09:16:21.329Z,5.25
2022-11-05T09:18:23.982Z,7.43
2022-11-05T09:20:26.684Z,6.40
2022-11-05T09:22:30.930Z,7.82
2022-11-05T09:24:33.624Z,6.75
2022-11-05T09:26:36.311Z,9.23
2022-11-05T09:28:39.299Z,7.28
2022-11-05T09:30:42.911Z,7.53
2022-11-05T09:32:45.539Z,7.20
2022-11-05T09:34:48.969Z,7.45
2022-11-05T09:36:51.567Z,8.48
2022-11-05T09:38:55.570Z,8.65
2022-11-05T09:41:01.900Z,9.55
2022-11-05T09:43:06.805Z,9.40
2022-11-05T09:45:15.167Z,8.02
2022-11-05T09:47:22.767Z,8.38
2022-11-05T09:49:28.740Z,7.95
2022-11-05T09:51:31.893Z,8.57
2022-11-05T09:53:39.222Z,7.45
2022-11-05T09:55:46.198Z,7.95
2022-11-05T09:57:53.251Z,9.15
2022-11-05T09:59:58.735Z,8.73
2022-11-05T10:02:04.920Z,7.22
2022-11-05T10:04:10.896Z,9.00
2022-11-05T10:06:20.565Z,9.02
2022-11-05T10:08:26.335Z,7.05
2022-11-05T10:10:41.342Z,11.63
2022-11-05T10:12:51.857Z,12.43
2022-11-05T10:15:07.263Z,10.70
2022-11-05T10:17:13.774Z,10.05
2022-11-05T10:19:23.865Z,12.73
2022-11-05T10:21:51.558Z,12.38
2022-11-05T10:23:49.647Z,9.77
2022-11-05T10:25:56.116Z,12.15
2022-11-05T10:28:01.129Z,11.05
2022-11-05T10:30:04.634Z,11.63
2022-11-05T10:32:08.363Z,12.35
2022-11-05T10:34:13.692Z,10.77
2022-11-05T10:36:21.881Z,11.68
2022-11-05T10:38:25.183Z,11.45
2022-11-05T10:40:37.379Z,13.00
2022-11-05T10:42:52.482Z,13.13
2022-11-05T10:45:05.480Z,12.65
2022-11-05T10:47:31.638Z,13.43
2022-11-05T10:49:47.257Z,16.67
2022-11-05T10:51:56.498Z,13.77
2022-11-05T10:54:04.594Z,14.27
2022-11-05T10:56:29.739Z,11.45
2022-11-05T10:58:35.337Z,12.60
2022-11-05T11:00:39.680Z,12.02
2022-11-05T11:02:43.097Z,13.48
2022-11-05T11:04:52.770Z,12.20
2022-11-05T11:06:57.606Z,11.70
2022-11-05T11:09:02.825Z,12.15
2022-11-05T11:11:08.821Z,11.80
2022-11-05T11:13:21.082Z,12.15
2022-11-05T11:15:27.594Z,11.57
2022-11-05T11:17:33.416Z,12.48
2022-11-05T11:19:37.415Z,12.60
2022-11-05T11:21:42.889Z,11.55
2022-11-05T11:23:54.834Z,12.52
2022-11-05T11:26:01.761Z,12.77
2022-11-05T11:28:06.326Z,13.13
2022-11-05T11:30:19.267Z,11.98
2022-11-05T11:32:22.862Z,12.43
2022-11-05T11:34:30.657Z,9.48
2022-11-05T11:36:36.652Z,10.75
2022-11-05T11:38:40.136Z,10.15
2022-11-05T11:40:42.997Z,11.43
2022-11-05T11:42:48.358Z,11.48
2022-11-05T11:44:52.430Z,13.38
2022-11-05T11:46:57.858Z,9.50
2022-11-05T11:49:01.805Z,8.63
2022-11-05T11:51:30.043Z,8.57
2022-11-05T11:53:36.165Z,11.90
2022-11-05T11:55:38.768Z,11.75
2022-11-05T11:57:48.043Z,9.45
2022-11-05T12:02:39.643Z,8.85
2022-11-05T12:04:54.879Z,10.82
2022-11-05T12:07:12.218Z,12.57
2022-11-05T12:09:23.257Z,9.75
2022-11-05T12:11:34.200Z,9.70
2022-11-05T12:13:59.437Z,11.45
2022-11-05T12:16:09.689Z,11.05
2022-11-05T12:18:20.743Z,9.40
2022-11-05T12:20:31.403Z,12.38
2022-11-05T12:22:53.113Z,11.27
2022-11-05T12:25:22.374Z,10.02
2022-11-05T12:27:40.748Z,8.75
2022-11-05T12:29:52.089Z,9.98
2022-11-05T12:32:11.631Z,8.85
2022-11-05T12:34:29.981Z,8.82
2022-11-05T12:39:04.274Z,8.50
2022-11-05T12:41:17.714Z,6.78
2022-11-05T12:43:31.005Z,6.78
2022-11-05T12:45:46.565Z,6.82
2022-11-05T12:48:05.394Z,6.72
2022-11-05T12:50:19.146Z,8.75
2022-11-05T12:52:35.990Z,7.13
2022-11-05T12:54:52.319Z,7.30
2022-11-05T12:56:58.949Z,7.22
2022-11-05T12:59:05.323Z,7.60
2022-11-05T13:01:12.816Z,7.72
2022-11-05T13:03:26.986Z,8.68
2022-11-05T13:05:36.037Z,9.23
2022-11-05T13:07:41.160Z,10.65
2022-11-05T13:09:49.206Z,8.70
2022-11-05T13:11:55.331Z,11.75
2022-11-05T13:14:06.976Z,10.10
2022-11-05T13:16:18.249Z,8.57
2022-11-05T13:18:25.144Z,8.10
2022-11-05T13:20:32.207Z,9.05
2022-11-05T13:22:38.775Z,8.02
2022-11-05T13:24:48.373Z,8.48
2022-11-05T13:26:57.248Z,7.97
2022-11-05T13:29:06.475Z,8.13
2022-11-05T13:31:14.996Z,7.70
2022-11-05T13:33:23.105Z,9.20
2022-11-05T13:35:30.409Z,9.43
2022-11-05T13:38:01.000Z,8.60
2022-11-05T13:40:10.465Z,7.35
2022-11-05T13:43:00.635Z,7.45
2022-11-05T13:45:25.132Z,8.65
2022-11-05T13:50:11.304Z,8.43
2022-11-05T13:52:33.647Z,9.40
2022-11-05T13:55:07.143Z,9.15
2022-11-05T13:57:31.511Z,8.82
2022-11-05T13:59:56.077Z,10.45
2022-11-05T14:02:00.527Z,9.80
2022-11-05T14:04:04.400Z,11.55
2022-11-05T14:06:10.634Z,9.07
2022-11-05T14:08:19.110Z,11.10
2022-11-05T14:10:30.749Z,11.40
2022-11-05T14:12:39.072Z,8.35
2022-11-05T14:14:45.657Z,9.40
2022-11-05T14:16:52.337Z,7.15
2022-11-05T14:21:01.070Z,7.72
2022-11-05T14:23:48.268Z,9.75
2022-11-05T14:25:56.122Z,9.38
2022-11-05T14:28:00.088Z,12.48
2022-11-05T14:30:42.527Z,10.15
2022-11-05T14:34:56.982Z,9.98
2022-11-05T14:37:29.074Z,9.25
2022-11-05T14:39:33.371Z,9.18
2022-11-05T14:41:53.159Z,8.07
2022-11-05T14:44:00.499Z,9.07
2022-11-05T14:46:06.081Z,8.60
2022-11-05T14:48:28.038Z,8.05
2022-11-05T14:50:37.748Z,7.85
2022-11-05T14:52:41.507Z,9.38
2022-11-05T14:54:48.486Z,10.38
2022-11-05T14:56:56.379Z,12.10
2022-11-05T14:59:52.295Z,10.68
2022-11-05T15:01:57.145Z,12.57
2022-11-05T15:04:17.309Z,10.50
2022-11-05T15:06:26.307Z,11.77
2022-11-05T15:08:37.524Z,11.77
2022-11-05T15:10:41.372Z,12.00
2022-11-05T15:12:47.446Z,12.75
2022-11-05T15:14:58.358Z,9.57
2022-11-05T15:17:09.872Z,12.40
2022-11-05T15:19:21.454Z,11.00
2022-11-05T15:21:25.764Z,9.30
2022-11-05T15:23:40.097Z,12.80
2022-11-05T15:25:52.959Z,10.25
2022-11-05T15:28:04.426Z,10.75
2022-11-05T15:30:16.410Z,11.35
2022-11-05T15:32:20.363Z,8.70
2022-11-05T15:34:25.888Z,9.32
2022-11-05T15:36:30.389Z,12.48
2022-11-05T15:38:35.331Z,16.48
2022-11-05T15:40:37.969Z,14.45
2022-11-05T15:42:40.589Z,13.98
2022-11-05T15:44:48.200Z,11.63
2022-11-05T15:47:07.068Z,10.07
2022-11-05T15:49:11.125Z,16.50
2022-11-05T15:51:13.921Z,12.77
2022-11-05T15:53:44.117Z,9.43
2022-11-05T15:55:51.026Z,16.15
2022-11-05T15:57:59.630Z,10.65
2022-11-05T16:00:06.534Z,9.90
2022-11-05T16:02:26.368Z,8.68
2022-11-05T16:04:31.895Z,12.18
2022-11-05T16:06:39.741Z,8.07
2022-11-05T16:08:48.623Z,9.80
2022-11-05T16:10:56.460Z,9.82
2022-11-05T16:13:20.037Z,11.60
2022-11-05T16:15:25.055Z,10.95
2022-11-05T16:17:33.083Z,9.18
2022-11-05T16:19:40.710Z,11.85
2022-11-05T16:21:54.681Z,8.65
2022-11-05T16:23:59.515Z,8.20
2022-11-05T16:26:02.219Z,11.57
2022-11-05T16:28:07.492Z,12.05
2022-11-05T16:30:18.932Z,9.50
2022-11-05T16:32:29.723Z,9.73
2022-11-05T16:34:38.054Z,8.05
2022-11-05T16:36:40.823Z,8.25
2022-11-05T16:38:43.620Z,8.85
2022-11-05T16:40:47.996Z,8.75
2022-11-05T16:42:53.843Z,10.98
2022-11-05T16:44:56.636Z,10.82
2022-11-05T16:46:59.308Z,8.13
2022-11-05T16:49:02.499Z,7.38
2022-11-05T16:51:06.612Z,9.00
2022-11-05T16:53:09.405Z,7.35
2022-11-05T16:55:12.593Z,8.80
2022-11-05T16:57:26.121Z,13.52
2022-11-05T16:59:29.694Z,10.27
2022-11-05T17:01:33.353Z,10.95
2022-11-05T17:03:36.092Z,12.10
2022-11-05T17:05:38.894Z,12.05
2022-11-05T17:07:42.947Z,11.20
2022-11-05T17:09:45.904Z,11.20
2022-11-05T17:11:48.530Z,11.75
2022-11-05T17:13:51.155Z,11.82
2022-11-05T17:15:53.845Z,14.82
2022-11-05T17:17:56.979Z,12.50
2022-11-05T17:19:59.570Z,10.27
2022-11-05T17:22:02.187Z,11.07
2022-11-05T17:24:07.952Z,10.60
2022-11-05T17:26:13.048Z,12.50
2022-11-05T17:28:17.341Z,12.02
2022-11-05T17:30:20.321Z,12.45
2022-11-05T17:32:22.952Z,15.52
2022-11-05T17:34:25.929Z,15.45
2022-11-05T17:36:28.595Z,12.90
2022-11-05T17:38:31.236Z,13.68
2022-11-05T17:40:36.530Z,15.45
2022-11-05T17:42:39.128Z,13.07
2022-11-05T17:44:44.293Z,14.93
2022-11-05T17:46:46.939Z,15.75
2022-11-05T17:48:52.040Z,13.30
2022-11-05T17:50:56.719Z,14.02
2022-11-05T17:52:59.348Z,12.23
2022-11-05T17:55:02.058Z,11.73
2022-11-05T17:57:06.080Z,10.73
2022-11-05T17:59:09.222Z,11.75
2022-11-05T18:01:25.968Z,9.75
2022-11-05T18:03:28.710Z,10.55
2022-11-05T18:05:31.425Z,14.40
2022-11-05T18:07:34.574Z,11.75
2022-11-05T18:09:37.583Z,12.32
2022-11-05T18:11:41.314Z,12.23
2022-11-05T18:13:45.374Z,12.75
2022-11-05T18:15:48.037Z,10.50
2022-11-05T18:17:50.659Z,10.32
2022-11-05T18:19:53.309Z,9.73
2022-11-05T18:21:56.347Z,14.65
2022-11-05T18:23:59.001Z,11.77
2022-11-05T18:26:01.669Z,12.68
2022-11-05T18:28:04.392Z,11.90
2022-11-05T18:30:10.480Z,10.93
2022-11-05T18:32:13.175Z,13.88
2022-11-05T18:34:15.827Z,12.93
2022-11-05T18:36:18.804Z,13.40
2022-11-05T18:38:21.490Z,13.93
2022-11-05T18:40:24.157Z,15.77
2022-11-05T18:42:26.852Z,13.07
2022-11-05T18:44:30.403Z,14.45
2022-11-05T18:46:57.229Z,14.90
2022-11-05T18:48:58.803Z,16.63
2022-11-05T18:51:02.211Z,13.48
2022-11-05T18:53:04.933Z,14.13
2022-11-05T18:55:08.743Z,16.02
2022-11-05T18:57:11.466Z,16.42
2022-11-05T18:59:35.863Z,15.65
2022-11-05T19:01:40.210Z,15.98
2022-11-05T19:03:42.903Z,17.05
2022-11-05T19:05:45.509Z,13.73
2022-11-05T19:07:48.147Z,14.77
2022-11-05T19:09:51.145Z,14.40
2022-11-05T19:11:56.945Z,14.48
2022-11-05T19:13:59.952Z,16.75
2022-11-05T19:16:02.657Z,19.85
2022-11-05T19:18:06.710Z,17.35
2022-11-05T19:20:10.401Z,15.38
2022-11-05T19:22:13.085Z,15.07
2022-11-05T19:24:17.691Z,19.92
2022-11-05T19:26:28.186Z,17.48
2022-11-05T19:28:31.394Z,16.63
2022-11-05T19:30:33.991Z,19.90
2022-11-05T19:32:36.590Z,20.48
2022-11-05T19:34:40.526Z,19.10
2022-11-05T19:36:43.744Z,18.63
2022-11-05T19:38:46.326Z,21.50
2022-11-05T19:40:48.987Z,17.92
2022-11-05T19:42:51.573Z,18.42
2022-11-05T19:44:54.202Z,17.42
2022-11-05T19:46:56.860Z,20.13
2022-11-05T19:49:00.583Z,18.85
2022-11-05T19:51:07.533Z,20.33
2022-11-05T19:53:10.362Z,19.25
2022-11-05T19:55:13.127Z,17.83
2022-11-05T19:57:15.766Z,19.35
2022-11-05T19:59:18.439Z,26.85
2022-11-05T20:01:22.884Z,28.33
2022-11-05T20:03:25.631Z,25.73
2022-11-05T20:05:28.282Z,25.15
2022-11-05T20:07:32.546Z,26.80
2022-11-05T20:09:35.247Z,23.42
2022-11-05T20:11:39.277Z,22.95
2022-11-05T20:13:42.334Z,25.00
2022-11-05T20:15:45.048Z,22.92
2022-11-05T20:17:51.656Z,22.73
2022-11-05T20:19:54.529Z,25.92
2022-11-05T20:22:00.552Z,22.70
2022-11-05T20:24:05.397Z,23.30
2022-11-05T20:26:08.745Z,33.83
2022-11-05T20:28:11.594Z,23.83
2022-11-05T20:30:14.569Z,21.75
2022-11-05T20:32:17.242Z,23.08
2022-11-05T20:34:19.815Z,23.20
2022-11-05T20:36:25.454Z,22.35
2022-11-05T20:38:28.427Z,18.63
2022-11-05T20:40:32.411Z,18.35
2022-11-05T20:42:36.864Z,18.55
2022-11-05T20:44:39.496Z,21.35
2022-11-05T20:46:42.153Z,22.52
2022-11-05T20:48:45.252Z,23.67
2022-11-05T20:50:47.968Z,23.60
2022-11-05T20:52:50.651Z,20.40
2022-11-05T20:54:53.365Z,24.98
2022-11-05T20:56:57.355Z,19.25
2022-11-05T20:59:00.800Z,24.52
2022-11-05T21:01:03.637Z,21.10
2022-11-05T21:03:06.504Z,25.95
2022-11-05T21:05:09.594Z,22.17
2022-11-05T21:07:12.319Z,24.05
2022-11-05T21:09:15.239Z,19.00
2022-11-05T21:11:18.093Z,20.77
2022-11-05T21:13:22.609Z,19.35
2022-11-05T21:15:25.257Z,24.10
2022-11-05T21:17:27.928Z,26.30
2022-11-05T21:19:32.148Z,23.13
2022-11-05T21:21:40.008Z,21.70
2022-11-05T21:23:43.757Z,22.67
2022-11-05T21:25:47.236Z,20.13
2022-11-05T21:27:49.828Z,22.15
2022-11-05T21:29:53.765Z,18.85
2022-11-05T21:31:56.558Z,19.33
2022-11-05T21:33:59.166Z,20.90
2022-11-05T21:36:07.836Z,21.67
2022-11-05T21:38:11.669Z,22.05
2022-11-05T21:40:14.532Z,19.15
2022-11-05T21:42:17.248Z,18.55
2022-11-05T21:44:20.081Z,22.98
2022-11-05T21:46:24.133Z,23.73
2022-11-05T21:48:26.844Z,23.35
2022-11-05T21:50:43.409Z,22.67
2022-11-05T21:53:03.588Z,20.73
2022-11-05T21:55:35.897Z,20.23
2022-11-05T21:57:56.395Z,21.92
2022-11-05T22:00:00.494Z,23.50
2022-11-05T22:02:05.272Z,24.48
2022-11-05T22:04:08.048Z,22.77
2022-11-05T22:06:10.699Z,23.25
2022-11-05T22:08:13.697Z,23.58
2022-11-05T22:10:17.137Z,20.92
2022-11-05T22:12:19.810Z,24.52
2022-11-05T22:14:22.955Z,26.15
2022-11-05T22:16:25.586Z,26.13
2022-11-05T22:18:29.602Z,23.23
2022-11-05T22:20:32.289Z,72.68
2022-11-05T22:22:35.458Z,34.67
2022-11-05T22:24:38.535Z,30.55
2022-11-05T22:26:42.684Z,33.33
2022-11-05T22:28:45.289Z,32.55
2022-11-05T22:30:47.970Z,32.60
2022-11-05T22:32:50.633Z,30.20
2022-11-05T22:34:54.572Z,26.27
2022-11-05T22:36:57.489Z,26.45
2022-11-05T22:39:00.367Z,25.85
2022-11-05T22:41:07.861Z,21.50
2022-11-05T22:43:10.532Z,23.88
2022-11-05T22:45:13.170Z,22.73
2022-11-05T22:47:17.922Z,26.20
2022-11-05T22:49:20.593Z,25.17
2022-11-05T22:51:25.985Z,24.80
2022-11-05T22:53:28.595Z,27.75
2022-11-05T22:55:31.191Z,24.30
2022-11-05T22:57:34.037Z,26.10
2022-11-05T22:59:36.682Z,23.15
2022-11-05T23:01:39.654Z,26.85
2022-11-05T23:03:44.521Z,25.17
2022-11-05T23:05:47.168Z,22.80
2022-11-05T23:10:41.977Z,22.83
2022-11-05T23:12:44.815Z,24.63
2022-11-05T23:14:47.521Z,23.40
2022-11-05T23:17:08.025Z,26.23
2022-11-05T23:19:24.749Z,21.98
2022-11-05T23:21:45.008Z,21.48
2022-11-05T23:24:05.850Z,23.80
2022-11-05T23:26:23.735Z,24.98
2022-11-05T23:28:26.732Z,20.10
2022-11-05T23:30:29.841Z,22.45
2022-11-05T23:32:32.157Z,25.13
2022-11-05T23:34:34.886Z,20.73
2022-11-05T23:36:55.055Z,22.75
2022-11-05T23:38:57.768Z,20.73
2022-11-05T23:41:19.061Z,21.67
2022-11-05T23:43:40.613Z,28.05
2022-11-05T23:46:02.851Z,23.52
2022-11-05T23:48:17.803Z,23.95
2022-11-05T23:50:20.546Z,22.95
2022-11-05T23:52:23.175Z,23.23
2022-11-05T23:54:25.822Z,22.77
2022-11-05T23:56:28.439Z,30.20
2022-11-05T23:58:32.858Z,23.58
